Forside
METAR-TAF:

METAR-TAF

Lufthavne :

Honiara International Airport

Honiara, Guadalcanal, Salomonøerne

Breddekreds: 09-25S, længdekreds: 160-03E, højde: 8 m

Aktuelle vejr

Vind 5 kt fra nordnordøst
Temperatur 30°C
Fugtighed 75%
Tryk 1011 hPa
Sigt 10 km eller mere
Spredte skyer i en højde af 1600 ft
Nogle få skyer i en højde af 1700 ft, Cumulonimbus.

METAR: AGGH 202300 02005KT 9999 SCT016 FEW017CB 30/25 Q1011

Tid: 10:52 (23:52 UTC)

Vejrudsigter

Denne rapport blev lavet for 42 minutter siden, kl. 23:10 UTC
Foreløbig gælder fra 21 på 00 UTC til 21 på 24 UTC
Vind 10 kt fra øst
Sigt 10 km eller mere
Spredte skyer i en højde af 1800 ft
Spredte skyer i en højde af 3000 ft
(let) byger med, finregn
Sandsynlighed 40%
mellem IN og TE UTC
Sigt: 1011 m
Brudte skyer i en højde af 1700 ft
Nogle få skyer i en højde af 1800 ft, Cumulonimbus.

TAF: AGGH 202310Z 2100/2124 09010KT 9999 -SHDZ SCT018 SCT030 PROB40 INTER 2100/2106 5000 TSSH BKN017 FEW018CB T 31 31 30 28 Q 1012 1010 1009 1011

Vejrobservationer og prognoser fra mere end 4000 lufthavne (METAR og TAF).

De gule og røde prikker repræsenterer de meteorologiske stationer.

Flyt musen over at se navnet på stationen.

Så klik over at se vejr observationer og prognoser.

At skifte det kort: Klik på de grønne knapper med et sort kors for at zoome ind; på den grønne knap med en bindestreg for at zoome ud; eller på de grønne pile for tilstødende kort.


METAR-TAF: